Nissos Mykonos — SYJZ — position and weather

sailwx.info

Track history (hours):
 
Tides and Currents Weather Stations Pressure Air Temp Water Temp Dewpoint Dewpoint Depression Visibility Wind Speed Wind Dir Waves Ship Positions

Nissos Mykonos

Last reported at 2017-Jun-26 10:02 UTC. Time now 2017-Jun-26 14:08 UTC.
Position N 37°34' E 025°40'.

Length 141 m; draft 5.2 m.

Type: Passenger vessel. MMSI: 240389000.

Date/timePositionNaut miles runAvg speedWind from/ knotsBaromVisibWave heightAir tempDewpointWater temp
2017-Jun-26 10:02N 37°34' E 025°40'125.5
2017-Jun-26 10:00N 37°34' E 025°39'1425.2
2017-Jun-26 09:28N 37°31' E 025°23'4 8.9
2017-Jun-26 09:01N 37°28' E 025°19'1121.9
2017-Jun-26 08:31N 37°27' E 025°06'714.3
2017-Jun-26 08:00N 37°26' E 024°56'816.2
2017-Jun-26 07:31N 37°31' E 024°48'4124.8
2017-Jun-26 05:50N 37°36' E 023°57'825.3
2017-Jun-26 05:31N 37°39' E 023°47'1224.0
2017-Jun-26 05:01N 37°49' E 023°38'815.9
2017-Jun-26 04:30N 37°57' E 023°38'0 0.0
2017-Jun-26 04:01N 37°57' E 023°38'0 0.0
2017-Jun-26 03:30N 37°57' E 023°38'0 0.0
2017-Jun-26 03:00N 37°57' E 023°38'0 0.0
2017-Jun-26 02:31N 37°57' E 023°38'0 0.0
2017-Jun-26 02:00N 37°57' E 023°38'0 0.0
2017-Jun-26 01:30N 37°57' E 023°38'0 0.0
2017-Jun-26 01:00N 37°57' E 023°38'0 0.0
2017-Jun-26 00:30N 37°57' E 023°38'0 0.0
2017-Jun-26 00:00N 37°57' E 023°38'0 0.0
2017-Jun-25 23:30N 37°57' E 023°38'0 0.0
2017-Jun-25 23:00N 37°57' E 023°38'0 0.0
2017-Jun-25 22:30N 37°57' E 023°38'0 0.0
2017-Jun-25 22:00N 37°57' E 023°38'0 0.0
2017-Jun-25 21:30N 37°57' E 023°38'2 3.1
2017-Jun-25 21:00N 37°56' E 023°37'918.2
2017-Jun-25 20:31N 37°48' E 023°41'1223.6
2017-Jun-25 20:00N 37°39' E 023°52'4224.7
2017-Jun-25 18:18N 37°31' E 024°44'1025.1
2017-Jun-25 17:55N 37°30' E 024°56'4 8.9
2017-Jun-25 17:29N 37°26' E 024°57'1020.6
2017-Jun-25 17:01N 37°27' E 025°09'816.7
2017-Jun-25 16:30N 37°28' E 025°19'715.0
2017-Jun-25 16:01N 37°31' E 025°28'1224.7
2017-Jun-25 15:31N 37°34' E 025°43'2 0.4
2017-Jun-25 10:07N 37°35' E 025°40'325.1
2017-Jun-25 10:01N 37°34' E 025°37'1525.3
2017-Jun-25 09:26N 37°30' E 025°19'3 6.0
2017-Jun-25 09:01N 37°28' E 025°18'1324.8
2017-Jun-25 08:30N 37°27' E 025°02'4 7.4
2017-Jun-25 08:01N 37°27' E 024°57'1020.3
2017-Jun-25 07:31N 37°31' E 024°46'3924.7
2017-Jun-25 05:57N 37°36' E 023°57'1125.2
2017-Jun-25 05:31N 37°39' E 023°44'1224.7
2017-Jun-25 05:01N 37°51' E 023°37'612.3
2017-Jun-25 04:30N 37°57' E 023°38'0 0.0
2017-Jun-25 04:00N 37°57' E 023°38'0 0.0
2017-Jun-25 03:30N 37°57' E 023°38'0 0.0
2017-Jun-25 03:00N 37°57' E 023°38'0 0.0
2017-Jun-25 02:30N 37°57' E 023°38'0 0.0
2017-Jun-25 02:00N 37°57' E 023°38'0 0.0
2017-Jun-25 01:30N 37°57' E 023°38'0 0.0
2017-Jun-25 01:00N 37°57' E 023°38'0 0.0
2017-Jun-25 00:30N 37°57' E 023°38'0 0.0
2017-Jun-25 00:00N 37°57' E 023°38'0 0.0
2017-Jun-24 23:30N 37°57' E 023°38'0 0.0
2017-Jun-24 23:00N 37°57' E 023°38'0 0.0
2017-Jun-24 22:30N 37°57' E 023°38'0 0.0
2017-Jun-24 22:00N 37°57' E 023°38'0 0.0
2017-Jun-24 21:30N 37°57' E 023°38'0 0.0
2017-Jun-24 21:00N 37°57' E 023°38'713.5
2017-Jun-24 20:31N 37°50' E 023°40'1224.3
2017-Jun-24 20:01N 37°40' E 023°49'4524.7
2017-Jun-24 18:12N 37°31' E 024°44'525.4
2017-Jun-24 18:01N 37°31' E 024°50'712.8
2017-Jun-24 17:28N 37°26' E 024°57'817.9
2017-Jun-24 17:01N 37°27' E 025°07'1020.2
2017-Jun-24 16:30N 37°28' E 025°19'510.9
2017-Jun-24 16:00N 37°31' E 025°25'1224.7
2017-Jun-24 15:31N 37°34' E 025°40'1 0.1
2017-Jun-24 10:03N 37°34' E 025°40'225.5
2017-Jun-24 09:59N 37°34' E 025°38'1625.5
2017-Jun-24 09:21N 37°30' E 025°18'2 7.1
2017-Jun-24 09:00N 37°28' E 025°19'1223.4
2017-Jun-24 08:31N 37°27' E 025°05'611.1
2017-Jun-24 07:58N 37°26' E 024°57'1020.5
2017-Jun-24 07:31N 37°31' E 024°47'4024.9
2017-Jun-24 05:54N 37°36' E 023°57'1025.6
2017-Jun-24 05:30N 37°39' E 023°45'1224.5
2017-Jun-24 05:01N 37°50' E 023°38'713.8
2017-Jun-24 04:30N 37°57' E 023°38'0 0.0
2017-Jun-24 04:00N 37°57' E 023°38'0 0.0
2017-Jun-24 03:30N 37°57' E 023°38'0 0.0
2017-Jun-24 03:00N 37°57' E 023°38'0 0.0
2017-Jun-24 02:30N 37°57' E 023°38'0 0.0
2017-Jun-24 02:00N 37°57' E 023°38'0 0.0
2017-Jun-24 01:30N 37°57' E 023°38'0 0.0
2017-Jun-24 01:00N 37°57' E 023°38'0 0.0
2017-Jun-24 00:30N 37°57' E 023°38'0 0.0
2017-Jun-24 00:00N 37°57' E 023°38'0 0.0
2017-Jun-23 23:30N 37°57' E 023°38'0 0.0
2017-Jun-23 23:00N 37°57' E 023°38'0 0.0
2017-Jun-23 22:30N 37°57' E 023°38'0 0.0
2017-Jun-23 22:00N 37°57' E 023°38'0 0.0
2017-Jun-23 21:30N 37°57' E 023°38'0 0.1
2017-Jun-23 21:00N 37°57' E 023°38'714.3
2017-Jun-23 20:31N 37°50' E 023°40'1224.4
2017-Jun-23 20:00N 37°40' E 023°49'4424.5
2017-Jun-23 18:12N 37°31' E 024°44'525.4
2017-Jun-23 18:01N 37°31' E 024°50'713.5
2017-Jun-23 17:30N 37°26' E 024°57'816.2
2017-Jun-23 17:01N 37°27' E 025°06'1020.6
2017-Jun-23 16:30N 37°28' E 025°19'5 9.7
2017-Jun-23 16:01N 37°31' E 025°24'1224.8
2017-Jun-23 15:30N 37°34' E 025°39'1 0.2
2017-Jun-23 10:04N 37°35' E 025°40'225.2
2017-Jun-23 09:59N 37°34' E 025°38'1223.6
2017-Jun-23 09:28N 37°31' E 025°23'4 8.9
2017-Jun-23 09:01N 37°28' E 025°19'1121.3
2017-Jun-23 08:31N 37°27' E 025°06'814.7
2017-Jun-23 08:00N 37°26' E 024°57'816.1
2017-Jun-23 07:31N 37°31' E 024°49'4124.8
2017-Jun-23 05:50N 37°36' E 023°57'825.5
2017-Jun-23 05:31N 37°39' E 023°47'1223.9
2017-Jun-23 05:01N 37°49' E 023°38'816.1
2017-Jun-23 04:30N 37°57' E 023°38'0 0.0
2017-Jun-23 04:00N 37°57' E 023°38'0 0.0
2017-Jun-23 03:30N 37°57' E 023°38'0 0.0
2017-Jun-23 03:00N 37°57' E 023°38'0 0.0
2017-Jun-23 02:30N 37°57' E 023°38'0 0.0
2017-Jun-23 02:00N 37°57' E 023°38'0 0.0
2017-Jun-23 01:30N 37°57' E 023°38'0 0.0
2017-Jun-23 01:00N 37°57' E 023°38'0 0.0
2017-Jun-23 00:30N 37°57' E 023°38'0 0.0
2017-Jun-23 00:00N 37°57' E 023°38'0 0.0
2017-Jun-22 23:30N 37°57' E 023°38'0 0.0
2017-Jun-22 23:00N 37°57' E 023°38'0 0.0
2017-Jun-22 22:30N 37°57' E 023°38'0 0.0
2017-Jun-22 22:00N 37°57' E 023°38'0 0.0
2017-Jun-22 21:30N 37°57' E 023°38'0 0.0
2017-Jun-22 21:00N 37°57' E 023°38'612.6
2017-Jun-22 20:31N 37°51' E 023°40'1224.8
2017-Jun-22 20:01N 37°40' E 023°48'4524.8
2017-Jun-22 18:12N 37°31' E 024°44'525.2
2017-Jun-22 18:01N 37°31' E 024°50'711.3
2017-Jun-22 17:22N 37°26' E 024°57'821.2
2017-Jun-22 17:01N 37°27' E 025°06'1121.1
2017-Jun-22 16:31N 37°28' E 025°19'5 9.5
2017-Jun-22 16:00N 37°31' E 025°24'1225.2
2017-Jun-22 15:30N 37°34' E 025°39'0 0.1
2017-Jun-22 10:00N 37°34' E 025°40'1425.2
2017-Jun-22 09:27N 37°31' E 025°23'4 9.3
2017-Jun-22 09:00N 37°28' E 025°19'1122.0
2017-Jun-22 08:31N 37°27' E 025°06'714.4
2017-Jun-22 08:00N 37°26' E 024°57'816.1
2017-Jun-22 07:31N 37°31' E 024°48'4724.9
2017-Jun-22 05:37N 37°38' E 023°50'325.5
2017-Jun-22 05:30N 37°39' E 023°46'1223.8
2017-Jun-22 05:01N 37°49' E 023°38'815.8
2017-Jun-22 04:30N 37°57' E 023°38'0 0.0
2017-Jun-22 04:00N 37°57' E 023°38'0 0.0
2017-Jun-22 03:30N 37°57' E 023°38'0 0.0
2017-Jun-22 03:00N 37°57' E 023°38'0 0.0
2017-Jun-22 02:30N 37°57' E 023°38'0 0.0
2017-Jun-22 02:00N 37°57' E 023°38'4 8.2
2017-Jun-22 01:31N 37°53' E 023°39'1224.9
2017-Jun-22 01:01N 37°41' E 023°45'4724.5
2017-Jun-21 23:04N 37°31' E 024°44'225.0
2017-Jun-21 23:01N 37°31' E 024°46'1325.1
2017-Jun-21 22:30N 37°31' E 025°02'1224.9
2017-Jun-21 22:01N 37°31' E 025°17'1325.0
2017-Jun-21 21:31N 37°34' E 025°33'1325.1
2017-Jun-21 21:00N 37°36' E 025°48'14512.1
2017-Jun-21 08:59N 39°56' E 024°59'2322.6
2017-Jun-21 07:59N 40°16' E 024°45'1122.9
2017-Jun-21 07:30N 40°26' E 024°38'1123.0
2017-Jun-21 07:01N 40°36' E 024°31'1123.0
2017-Jun-21 06:31N 40°47' E 024°27'918.0
2017-Jun-21 06:01N 40°56' E 024°25'0 0.0
2017-Jun-21 05:30N 40°56' E 024°25'0 0.0
2017-Jun-21 05:00N 40°56' E 024°25'0 0.0
2017-Jun-21 04:30N 40°56' E 024°25'0 0.0
2017-Jun-21 04:00N 40°56' E 024°25'1 1.9
2017-Jun-21 03:30N 40°55' E 024°24'1122.8
2017-Jun-21 03:01N 40°44' E 024°28'1122.6
2017-Jun-21 02:30N 40°33' E 024°32'1222.9
2017-Jun-21 02:00N 40°23' E 024°39'17411.1
2017-Jun-20 10:22N 37°36' E 025°44'1025.1
2017-Jun-20 09:58N 37°35' E 025°32'1225.0
2017-Jun-20 09:30N 37°30' E 025°18'3 6.3
2017-Jun-20 09:01N 37°28' E 025°15'1224.6
2017-Jun-20 08:31N 37°26' E 025°00'3 6.9
2017-Jun-20 08:01N 37°29' E 024°57'5423.6
2017-Jun-20 05:43N 37°38' E 023°50'522.9
2017-Jun-20 05:30N 37°40' E 023°44'1122.2
2017-Jun-20 05:01N 37°49' E 023°38'713.3
2017-Jun-20 04:28N 37°57' E 023°38'0 0.0
2017-Jun-20 03:59N 37°57' E 023°38'0 0.0
2017-Jun-20 03:30N 37°57' E 023°38'0 0.0
2017-Jun-20 03:00N 37°57' E 023°38'0 0.0
2017-Jun-20 02:24N 37°57' E 023°38'0 0.0
2017-Jun-20 01:59N 37°57' E 023°38'0 0.0
2017-Jun-20 01:27N 37°57' E 023°38'0 0.0
2017-Jun-20 00:57N 37°57' E 023°38'0 0.0
2017-Jun-20 00:28N 37°57' E 023°38'0 0.0
2017-Jun-19 23:59N 37°57' E 023°38'0 0.0
2017-Jun-19 23:30N 37°57' E 023°38'0 0.0
2017-Jun-19 22:48N 37°57' E 023°38'0 0.0
2017-Jun-19 22:28N 37°57' E 023°38'0 0.0
2017-Jun-19 21:59N 37°57' E 023°38'0 0.0
2017-Jun-19 21:28N 37°57' E 023°38'0 0.1
2017-Jun-19 21:00N 37°57' E 023°38'713.6
2017-Jun-19 20:31N 37°50' E 023°40'1224.0
2017-Jun-19 20:00N 37°40' E 023°49'4424.8
2017-Jun-19 18:13N 37°31' E 024°44'525.3
2017-Jun-19 18:01N 37°31' E 024°51'710.4
2017-Jun-19 17:18N 37°26' E 024°57'725.1
2017-Jun-19 17:01N 37°27' E 025°06'1020.5
2017-Jun-19 16:30N 37°28' E 025°19'611.1
2017-Jun-19 16:00N 37°32' E 025°24'1224.7
2017-Jun-19 15:31N 37°35' E 025°39'2 0.3
2017-Jun-19 09:56N 37°34' E 025°38'1225.1
2017-Jun-19 09:27N 37°31' E 025°23'4 9.5
2017-Jun-19 09:01N 37°28' E 025°19'1121.1
2017-Jun-19 08:31N 37°27' E 025°06'712.6
2017-Jun-19 07:56N 37°26' E 024°57'819.6
2017-Jun-19 07:31N 37°31' E 024°49'5024.6
2017-Jun-19 05:29N 37°39' E 023°47'1223.9
2017-Jun-19 05:01N 37°48' E 023°38'816.8
2017-Jun-19 04:30N 37°57' E 023°38'0 0.0
2017-Jun-19 04:00N 37°57' E 023°38'0 0.0
2017-Jun-19 03:30N 37°57' E 023°38'0 0.0
2017-Jun-19 03:00N 37°57' E 023°38'0 0.0
2017-Jun-19 02:30N 37°57' E 023°38'0 0.0
2017-Jun-19 02:00N 37°57' E 023°38'0 0.0
2017-Jun-19 01:30N 37°57' E 023°38'0 0.0
2017-Jun-19 01:00N 37°57' E 023°38'0 0.0
2017-Jun-19 00:30N 37°57' E 023°38'0 0.0
2017-Jun-19 00:00N 37°57' E 023°38'0 0.0
2017-Jun-18 23:30N 37°57' E 023°38'0 0.0
2017-Jun-18 23:00N 37°57' E 023°38'0 0.0
2017-Jun-18 22:30N 37°57' E 023°38'0 0.0
2017-Jun-18 22:00N 37°57' E 023°38'0 0.0
2017-Jun-18 21:30N 37°57' E 023°38'2 3.4
2017-Jun-18 21:00N 37°56' E 023°37'1019.2
2017-Jun-18 20:31N 37°47' E 023°42'5223.9
2017-Jun-18 18:21N 37°31' E 024°44'1025.0
2017-Jun-18 17:58N 37°30' E 024°56'4 7.8
2017-Jun-18 17:28N 37°26' E 024°57'817.7
2017-Jun-18 17:01N 37°27' E 025°07'1020.2
2017-Jun-18 16:30N 37°28' E 025°19'510.1
2017-Jun-18 16:00N 37°31' E 025°24'1325.2
2017-Jun-18 15:31N 37°34' E 025°40'3 0.6
2017-Jun-18 09:53N 37°34' E 025°36'1125.3
2017-Jun-18 09:28N 37°31' E 025°23'4 9.1
2017-Jun-18 09:00N 37°28' E 025°19'1121.1
2017-Jun-18 08:30N 37°27' E 025°06'814.8
2017-Jun-18 08:00N 37°26' E 024°57'918.4
2017-Jun-18 07:31N 37°31' E 024°48'4724.5
2017-Jun-18 05:35N 37°38' E 023°48'224.8
2017-Jun-18 05:30N 37°39' E 023°46'1223.9
2017-Jun-18 05:01N 37°49' E 023°38'815.7
2017-Jun-18 04:31N 37°57' E 023°38'0 0.0
2017-Jun-18 04:01N 37°57' E 023°38'0 0.0
2017-Jun-18 03:30N 37°57' E 023°38'0 0.0
2017-Jun-18 03:01N 37°57' E 023°38'0 0.0
2017-Jun-18 02:31N 37°57' E 023°38'0 0.0
2017-Jun-18 02:00N 37°57' E 023°38'0 0.0
2017-Jun-18 01:31N 37°57' E 023°38'0 0.0
2017-Jun-18 01:00N 37°57' E 023°38'0 0.0
2017-Jun-18 00:30N 37°57' E 023°38'0 0.0
2017-Jun-18 00:00N 37°57' E 023°38'0 0.0
2017-Jun-17 23:30N 37°57' E 023°38'0 0.0
2017-Jun-17 23:00N 37°57' E 023°38'0 0.0
2017-Jun-17 22:30N 37°57' E 023°38'0 0.0
2017-Jun-17 22:00N 37°57' E 023°38'0 0.0
2017-Jun-17 21:30N 37°57' E 023°38'0 0.0
2017-Jun-17 21:00N 37°57' E 023°38'611.4
2017-Jun-17 20:31N 37°51' E 023°39'1224.4
2017-Jun-17 20:01N 37°41' E 023°48'4525.0
2017-Jun-17 18:12N 37°31' E 024°44'525.7
2017-Jun-17 18:01N 37°31' E 024°50'811.3
2017-Jun-17 17:20N 37°26' E 024°57'824.4
2017-Jun-17 17:01N 37°27' E 025°07'1019.8
2017-Jun-17 16:30N 37°28' E 025°19'714.1
2017-Jun-17 16:00N 37°31' E 025°27'1325.0
2017-Jun-17 15:30N 37°34' E 025°43'5 0.9
2017-Jun-17 09:53N 37°34' E 025°36'1525.5
2017-Jun-17 09:19N 37°30' E 025°18'2 7.1
2017-Jun-17 09:00N 37°28' E 025°19'714.2
2017-Jun-17 08:31N 37°29' E 025°11'1424.9
2017-Jun-17 07:58N 37°31' E 024°54'5123.0
2017-Jun-17 05:43N 37°38' E 023°49'523.2
2017-Jun-17 05:31N 37°40' E 023°43'1122.9
2017-Jun-17 05:00N 37°50' E 023°37'612.6
2017-Jun-17 04:30N 37°57' E 023°38'0 0.0
2017-Jun-17 04:01N 37°57' E 023°38'0 0.0
2017-Jun-17 03:30N 37°57' E 023°38'0 0.0
2017-Jun-17 03:00N 37°57' E 023°38'0 0.0
2017-Jun-17 02:30N 37°57' E 023°38'0 0.0
2017-Jun-17 02:00N 37°57' E 023°38'0 0.0
2017-Jun-17 01:31N 37°57' E 023°38'0 0.0
2017-Jun-17 01:01N 37°57' E 023°38'0 0.0
2017-Jun-17 00:31N 37°57' E 023°38'0 0.0
2017-Jun-17 00:00N 37°57' E 023°38'0 0.0
2017-Jun-16 23:30N 37°57' E 023°38'0 0.0
2017-Jun-16 23:00N 37°57' E 023°38'0 0.0
2017-Jun-16 22:31N 37°57' E 023°38'0 0.0
2017-Jun-16 22:01N 37°57' E 023°38'0 0.0
2017-Jun-16 21:31N 37°57' E 023°38'1 1.8
2017-Jun-16 21:00N 37°56' E 023°37'816.7
2017-Jun-16 20:30N 37°48' E 023°41'5322.9
2017-Jun-16 18:12N 37°31' E 024°44'525.4
2017-Jun-16 18:00N 37°31' E 024°50'810.9
2017-Jun-16 17:19N 37°26' E 024°57'723.8
2017-Jun-16 17:01N 37°27' E 025°06'1020.9
2017-Jun-16 16:30N 37°28' E 025°19'510.3
2017-Jun-16 16:00N 37°31' E 025°24'1225.0
2017-Jun-16 15:30N 37°34' E 025°40'  
Track history (hours):
 
Tides and Currents Weather Stations Pressure Air Temp Water Temp Dewpoint Dewpoint Depression Visibility Wind Speed Wind Dir Waves Ship Positions

Nissos Mykonos

Last reported at 2017-Jun-26 10:02 UTC. Time now 2017-Jun-26 14:08 UTC.
Position N 37°34' E 025°40'.

Length 141 m; draft 5.2 m.

Type: Passenger vessel. MMSI: 240389000.

Date/timePositionNaut miles runAvg speedWind from/ knotsBaromVisibWave heightAir tempDewpointWater temp
2017-Jun-26 10:02N 37°34' E 025°40'125.5
2017-Jun-26 10:00N 37°34' E 025°39'1425.2
2017-Jun-26 09:28N 37°31' E 025°23'4 8.9
2017-Jun-26 09:01N 37°28' E 025°19'1121.9
2017-Jun-26 08:31N 37°27' E 025°06'714.3
2017-Jun-26 08:00N 37°26' E 024°56'816.2
2017-Jun-26 07:31N 37°31' E 024°48'4124.8
2017-Jun-26 05:50N 37°36' E 023°57'825.3
2017-Jun-26 05:31N 37°39' E 023°47'1224.0
2017-Jun-26 05:01N 37°49' E 023°38'815.9
2017-Jun-26 04:30N 37°57' E 023°38'0 0.0
2017-Jun-26 04:01N 37°57' E 023°38'0 0.0
2017-Jun-26 03:30N 37°57' E 023°38'0 0.0
2017-Jun-26 03:00N 37°57' E 023°38'0 0.0
2017-Jun-26 02:31N 37°57' E 023°38'0 0.0
2017-Jun-26 02:00N 37°57' E 023°38'0 0.0
2017-Jun-26 01:30N 37°57' E 023°38'0 0.0
2017-Jun-26 01:00N 37°57' E 023°38'0 0.0
2017-Jun-26 00:30N 37°57' E 023°38'0 0.0
2017-Jun-26 00:00N 37°57' E 023°38'0 0.0
2017-Jun-25 23:30N 37°57' E 023°38'0 0.0
2017-Jun-25 23:00N 37°57' E 023°38'0 0.0
2017-Jun-25 22:30N 37°57' E 023°38'0 0.0
2017-Jun-25 22:00N 37°57' E 023°38'0 0.0
2017-Jun-25 21:30N 37°57' E 023°38'2 3.1
2017-Jun-25 21:00N 37°56' E 023°37'918.2
2017-Jun-25 20:31N 37°48' E 023°41'1223.6
2017-Jun-25 20:00N 37°39' E 023°52'4224.7
2017-Jun-25 18:18N 37°31' E 024°44'1025.1
2017-Jun-25 17:55N 37°30' E 024°56'4 8.9
2017-Jun-25 17:29N 37°26' E 024°57'1020.6
2017-Jun-25 17:01N 37°27' E 025°09'816.7
2017-Jun-25 16:30N 37°28' E 025°19'715.0
2017-Jun-25 16:01N 37°31' E 025°28'1224.7
2017-Jun-25 15:31N 37°34' E 025°43'2 0.4
2017-Jun-25 10:07N 37°35' E 025°40'325.1
2017-Jun-25 10:01N 37°34' E 025°37'1525.3
2017-Jun-25 09:26N 37°30' E 025°19'3 6.0
2017-Jun-25 09:01N 37°28' E 025°18'1324.8
2017-Jun-25 08:30N 37°27' E 025°02'4 7.4
2017-Jun-25 08:01N 37°27' E 024°57'1020.3
2017-Jun-25 07:31N 37°31' E 024°46'3924.7
2017-Jun-25 05:57N 37°36' E 023°57'1125.2
2017-Jun-25 05:31N 37°39' E 023°44'1224.7
2017-Jun-25 05:01N 37°51' E 023°37'612.3
2017-Jun-25 04:30N 37°57' E 023°38'0 0.0
2017-Jun-25 04:00N 37°57' E 023°38'0 0.0
2017-Jun-25 03:30N 37°57' E 023°38'0 0.0
2017-Jun-25 03:00N 37°57' E 023°38'0 0.0
2017-Jun-25 02:30N 37°57' E 023°38'0 0.0
2017-Jun-25 02:00N 37°57' E 023°38'0 0.0
2017-Jun-25 01:30N 37°57' E 023°38'0 0.0
2017-Jun-25 01:00N 37°57' E 023°38'0 0.0
2017-Jun-25 00:30N 37°57' E 023°38'0 0.0
2017-Jun-25 00:00N 37°57' E 023°38'0 0.0
2017-Jun-24 23:30N 37°57' E 023°38'0 0.0
2017-Jun-24 23:00N 37°57' E 023°38'0 0.0
2017-Jun-24 22:30N 37°57' E 023°38'0 0.0
2017-Jun-24 22:00N 37°57' E 023°38'0 0.0
2017-Jun-24 21:30N 37°57' E 023°38'0 0.0
2017-Jun-24 21:00N 37°57' E 023°38'713.5
2017-Jun-24 20:31N 37°50' E 023°40'1224.3
2017-Jun-24 20:01N 37°40' E 023°49'4524.7
2017-Jun-24 18:12N 37°31' E 024°44'525.4
2017-Jun-24 18:01N 37°31' E 024°50'712.8
2017-Jun-24 17:28N 37°26' E 024°57'817.9
2017-Jun-24 17:01N 37°27' E 025°07'1020.2
2017-Jun-24 16:30N 37°28' E 025°19'510.9
2017-Jun-24 16:00N 37°31' E 025°25'1224.7
2017-Jun-24 15:31N 37°34' E 025°40'1 0.1
2017-Jun-24 10:03N 37°34' E 025°40'225.5
2017-Jun-24 09:59N 37°34' E 025°38'1625.5
2017-Jun-24 09:21N 37°30' E 025°18'2 7.1
2017-Jun-24 09:00N 37°28' E 025°19'1223.4
2017-Jun-24 08:31N 37°27' E 025°05'611.1
2017-Jun-24 07:58N 37°26' E 024°57'1020.5
2017-Jun-24 07:31N 37°31' E 024°47'4024.9
2017-Jun-24 05:54N 37°36' E 023°57'1025.6
2017-Jun-24 05:30N 37°39' E 023°45'1224.5
2017-Jun-24 05:01N 37°50' E 023°38'713.8
2017-Jun-24 04:30N 37°57' E 023°38'0 0.0
2017-Jun-24 04:00N 37°57' E 023°38'0 0.0
2017-Jun-24 03:30N 37°57' E 023°38'0 0.0
2017-Jun-24 03:00N 37°57' E 023°38'0 0.0
2017-Jun-24 02:30N 37°57' E 023°38'0 0.0
2017-Jun-24 02:00N 37°57' E 023°38'0 0.0
2017-Jun-24 01:30N 37°57' E 023°38'0 0.0
2017-Jun-24 01:00N 37°57' E 023°38'0 0.0
2017-Jun-24 00:30N 37°57' E 023°38'0 0.0
2017-Jun-24 00:00N 37°57' E 023°38'0 0.0
2017-Jun-23 23:30N 37°57' E 023°38'0 0.0
2017-Jun-23 23:00N 37°57' E 023°38'0 0.0
2017-Jun-23 22:30N 37°57' E 023°38'0 0.0
2017-Jun-23 22:00N 37°57' E 023°38'0 0.0
2017-Jun-23 21:30N 37°57' E 023°38'0 0.1
2017-Jun-23 21:00N 37°57' E 023°38'714.3
2017-Jun-23 20:31N 37°50' E 023°40'1224.4
2017-Jun-23 20:00N 37°40' E 023°49'4424.5
2017-Jun-23 18:12N 37°31' E 024°44'525.4
2017-Jun-23 18:01N 37°31' E 024°50'713.5
2017-Jun-23 17:30N 37°26' E 024°57'816.2
2017-Jun-23 17:01N 37°27' E 025°06'1020.6
2017-Jun-23 16:30N 37°28' E 025°19'5 9.7
2017-Jun-23 16:01N 37°31' E 025°24'1224.8
2017-Jun-23 15:30N 37°34' E 025°39'1 0.2
2017-Jun-23 10:04N 37°35' E 025°40'225.2
2017-Jun-23 09:59N 37°34' E 025°38'1223.6
2017-Jun-23 09:28N 37°31' E 025°23'4 8.9
2017-Jun-23 09:01N 37°28' E 025°19'1121.3
2017-Jun-23 08:31N 37°27' E 025°06'814.7
2017-Jun-23 08:00N 37°26' E 024°57'816.1
2017-Jun-23 07:31N 37°31' E 024°49'4124.8
2017-Jun-23 05:50N 37°36' E 023°57'825.5
2017-Jun-23 05:31N 37°39' E 023°47'1223.9
2017-Jun-23 05:01N 37°49' E 023°38'816.1
2017-Jun-23 04:30N 37°57' E 023°38'0 0.0
2017-Jun-23 04:00N 37°57' E 023°38'0 0.0
2017-Jun-23 03:30N 37°57' E 023°38'0 0.0
2017-Jun-23 03:00N 37°57' E 023°38'0 0.0
2017-Jun-23 02:30N 37°57' E 023°38'0 0.0
2017-Jun-23 02:00N 37°57' E 023°38'0 0.0
2017-Jun-23 01:30N 37°57' E 023°38'0 0.0
2017-Jun-23 01:00N 37°57' E 023°38'0 0.0
2017-Jun-23 00:30N 37°57' E 023°38'0 0.0
2017-Jun-23 00:00N 37°57' E 023°38'0 0.0
2017-Jun-22 23:30N 37°57' E 023°38'0 0.0
2017-Jun-22 23:00N 37°57' E 023°38'0 0.0
2017-Jun-22 22:30N 37°57' E 023°38'0 0.0
2017-Jun-22 22:00N 37°57' E 023°38'0 0.0
2017-Jun-22 21:30N 37°57' E 023°38'0 0.0
2017-Jun-22 21:00N 37°57' E 023°38'612.6
2017-Jun-22 20:31N 37°51' E 023°40'1224.8
2017-Jun-22 20:01N 37°40' E 023°48'4524.8
2017-Jun-22 18:12N 37°31' E 024°44'525.2
2017-Jun-22 18:01N 37°31' E 024°50'711.3
2017-Jun-22 17:22N 37°26' E 024°57'821.2
2017-Jun-22 17:01N 37°27' E 025°06'1121.1
2017-Jun-22 16:31N 37°28' E 025°19'5 9.5
2017-Jun-22 16:00N 37°31' E 025°24'1225.2
2017-Jun-22 15:30N 37°34' E 025°39'0 0.1
2017-Jun-22 10:00N 37°34' E 025°40'1425.2
2017-Jun-22 09:27N 37°31' E 025°23'4 9.3
2017-Jun-22 09:00N 37°28' E 025°19'1122.0
2017-Jun-22 08:31N 37°27' E 025°06'714.4
2017-Jun-22 08:00N 37°26' E 024°57'816.1
2017-Jun-22 07:31N 37°31' E 024°48'4724.9
2017-Jun-22 05:37N 37°38' E 023°50'325.5
2017-Jun-22 05:30N 37°39' E 023°46'1223.8
2017-Jun-22 05:01N 37°49' E 023°38'815.8
2017-Jun-22 04:30N 37°57' E 023°38'0 0.0
2017-Jun-22 04:00N 37°57' E 023°38'0 0.0
2017-Jun-22 03:30N 37°57' E 023°38'0 0.0
2017-Jun-22 03:00N 37°57' E 023°38'0 0.0
2017-Jun-22 02:30N 37°57' E 023°38'0 0.0
2017-Jun-22 02:00N 37°57' E 023°38'4 8.2
2017-Jun-22 01:31N 37°53' E 023°39'1224.9
2017-Jun-22 01:01N 37°41' E 023°45'4724.5
2017-Jun-21 23:04N 37°31' E 024°44'225.0
2017-Jun-21 23:01N 37°31' E 024°46'1325.1
2017-Jun-21 22:30N 37°31' E 025°02'1224.9
2017-Jun-21 22:01N 37°31' E 025°17'1325.0
2017-Jun-21 21:31N 37°34' E 025°33'1325.1
2017-Jun-21 21:00N 37°36' E 025°48'14512.1
2017-Jun-21 08:59N 39°56' E 024°59'2322.6
2017-Jun-21 07:59N 40°16' E 024°45'1122.9
2017-Jun-21 07:30N 40°26' E 024°38'1123.0
2017-Jun-21 07:01N 40°36' E 024°31'1123.0
2017-Jun-21 06:31N 40°47' E 024°27'918.0
2017-Jun-21 06:01N 40°56' E 024°25'0 0.0
2017-Jun-21 05:30N 40°56' E 024°25'0 0.0
2017-Jun-21 05:00N 40°56' E 024°25'0 0.0
2017-Jun-21 04:30N 40°56' E 024°25'0 0.0
2017-Jun-21 04:00N 40°56' E 024°25'1 1.9
2017-Jun-21 03:30N 40°55' E 024°24'1122.8
2017-Jun-21 03:01N 40°44' E 024°28'1122.6
2017-Jun-21 02:30N 40°33' E 024°32'1222.9
2017-Jun-21 02:00N 40°23' E 024°39'17411.1
2017-Jun-20 10:22N 37°36' E 025°44'1025.1
2017-Jun-20 09:58N 37°35' E 025°32'1225.0
2017-Jun-20 09:30N 37°30' E 025°18'3 6.3
2017-Jun-20 09:01N 37°28' E 025°15'1224.6
2017-Jun-20 08:31N 37°26' E 025°00'3 6.9
2017-Jun-20 08:01N 37°29' E 024°57'5423.6
2017-Jun-20 05:43N 37°38' E 023°50'522.9
2017-Jun-20 05:30N 37°40' E 023°44'1122.2
2017-Jun-20 05:01N 37°49' E 023°38'713.3
2017-Jun-20 04:28N 37°57' E 023°38'0 0.0
2017-Jun-20 03:59N 37°57' E 023°38'0 0.0
2017-Jun-20 03:30N 37°57' E 023°38'0 0.0
2017-Jun-20 03:00N 37°57' E 023°38'0 0.0
2017-Jun-20 02:24N 37°57' E 023°38'0 0.0
2017-Jun-20 01:59N 37°57' E 023°38'0 0.0
2017-Jun-20 01:27N 37°57' E 023°38'0 0.0
2017-Jun-20 00:57N 37°57' E 023°38'0 0.0
2017-Jun-20 00:28N 37°57' E 023°38'0 0.0
2017-Jun-19 23:59N 37°57' E 023°38'0 0.0
2017-Jun-19 23:30N 37°57' E 023°38'0 0.0
2017-Jun-19 22:48N 37°57' E 023°38'0 0.0
2017-Jun-19 22:28N 37°57' E 023°38'0 0.0
2017-Jun-19 21:59N 37°57' E 023°38'0 0.0
2017-Jun-19 21:28N 37°57' E 023°38'0 0.1
2017-Jun-19 21:00N 37°57' E 023°38'713.6
2017-Jun-19 20:31N 37°50' E 023°40'1224.0
2017-Jun-19 20:00N 37°40' E 023°49'4424.8
2017-Jun-19 18:13N 37°31' E 024°44'525.3
2017-Jun-19 18:01N 37°31' E 024°51'710.4
2017-Jun-19 17:18N 37°26' E 024°57'725.1
2017-Jun-19 17:01N 37°27' E 025°06'1020.5
2017-Jun-19 16:30N 37°28' E 025°19'611.1
2017-Jun-19 16:00N 37°32' E 025°24'1224.7
2017-Jun-19 15:31N 37°35' E 025°39'2 0.3
2017-Jun-19 09:56N 37°34' E 025°38'1225.1
2017-Jun-19 09:27N 37°31' E 025°23'4 9.5
2017-Jun-19 09:01N 37°28' E 025°19'1121.1
2017-Jun-19 08:31N 37°27' E 025°06'712.6
2017-Jun-19 07:56N 37°26' E 024°57'819.6
2017-Jun-19 07:31N 37°31' E 024°49'5024.6
2017-Jun-19 05:29N 37°39' E 023°47'1223.9
2017-Jun-19 05:01N 37°48' E 023°38'816.8
2017-Jun-19 04:30N 37°57' E 023°38'0 0.0
2017-Jun-19 04:00N 37°57' E 023°38'0 0.0
2017-Jun-19 03:30N 37°57' E 023°38'0 0.0
2017-Jun-19 03:00N 37°57' E 023°38'0 0.0
2017-Jun-19 02:30N 37°57' E 023°38'0 0.0
2017-Jun-19 02:00N 37°57' E 023°38'0 0.0
2017-Jun-19 01:30N 37°57' E 023°38'0 0.0
2017-Jun-19 01:00N 37°57' E 023°38'0 0.0
2017-Jun-19 00:30N 37°57' E 023°38'0 0.0
2017-Jun-19 00:00N 37°57' E 023°38'0 0.0
2017-Jun-18 23:30N 37°57' E 023°38'0 0.0
2017-Jun-18 23:00N 37°57' E 023°38'0 0.0
2017-Jun-18 22:30N 37°57' E 023°38'0 0.0
2017-Jun-18 22:00N 37°57' E 023°38'0 0.0
2017-Jun-18 21:30N 37°57' E 023°38'2 3.4
2017-Jun-18 21:00N 37°56' E 023°37'1019.2
2017-Jun-18 20:31N 37°47' E 023°42'5223.9
2017-Jun-18 18:21N 37°31' E 024°44'1025.0
2017-Jun-18 17:58N 37°30' E 024°56'4 7.8
2017-Jun-18 17:28N 37°26' E 024°57'817.7
2017-Jun-18 17:01N 37°27' E 025°07'1020.2
2017-Jun-18 16:30N 37°28' E 025°19'510.1
2017-Jun-18 16:00N 37°31' E 025°24'1325.2
2017-Jun-18 15:31N 37°34' E 025°40'3 0.6
2017-Jun-18 09:53N 37°34' E 025°36'1125.3
2017-Jun-18 09:28N 37°31' E 025°23'4 9.1
2017-Jun-18 09:00N 37°28' E 025°19'1121.1
2017-Jun-18 08:30N 37°27' E 025°06'814.8
2017-Jun-18 08:00N 37°26' E 024°57'918.4
2017-Jun-18 07:31N 37°31' E 024°48'4724.5
2017-Jun-18 05:35N 37°38' E 023°48'224.8
2017-Jun-18 05:30N 37°39' E 023°46'1223.9
2017-Jun-18 05:01N 37°49' E 023°38'815.7
2017-Jun-18 04:31N 37°57' E 023°38'0 0.0
2017-Jun-18 04:01N 37°57' E 023°38'0 0.0
2017-Jun-18 03:30N 37°57' E 023°38'0 0.0
2017-Jun-18 03:01N 37°57' E 023°38'0 0.0
2017-Jun-18 02:31N 37°57' E 023°38'0 0.0
2017-Jun-18 02:00N 37°57' E 023°38'0 0.0
2017-Jun-18 01:31N 37°57' E 023°38'0 0.0
2017-Jun-18 01:00N 37°57' E 023°38'0 0.0
2017-Jun-18 00:30N 37°57' E 023°38'0 0.0
2017-Jun-18 00:00N 37°57' E 023°38'0 0.0
2017-Jun-17 23:30N 37°57' E 023°38'0 0.0
2017-Jun-17 23:00N 37°57' E 023°38'0 0.0
2017-Jun-17 22:30N 37°57' E 023°38'0 0.0
2017-Jun-17 22:00N 37°57' E 023°38'0 0.0
2017-Jun-17 21:30N 37°57' E 023°38'0 0.0
2017-Jun-17 21:00N 37°57' E 023°38'611.4
2017-Jun-17 20:31N 37°51' E 023°39'1224.4
2017-Jun-17 20:01N 37°41' E 023°48'4525.0
2017-Jun-17 18:12N 37°31' E 024°44'525.7
2017-Jun-17 18:01N 37°31' E 024°50'811.3
2017-Jun-17 17:20N 37°26' E 024°57'824.4
2017-Jun-17 17:01N 37°27' E 025°07'1019.8
2017-Jun-17 16:30N 37°28' E 025°19'714.1
2017-Jun-17 16:00N 37°31' E 025°27'1325.0
2017-Jun-17 15:30N 37°34' E 025°43'5 0.9
2017-Jun-17 09:53N 37°34' E 025°36'1525.5
2017-Jun-17 09:19N 37°30' E 025°18'2 7.1
2017-Jun-17 09:00N 37°28' E 025°19'714.2
2017-Jun-17 08:31N 37°29' E 025°11'1424.9
2017-Jun-17 07:58N 37°31' E 024°54'5123.0
2017-Jun-17 05:43N 37°38' E 023°49'523.2
2017-Jun-17 05:31N 37°40' E 023°43'1122.9
2017-Jun-17 05:00N 37°50' E 023°37'612.6
2017-Jun-17 04:30N 37°57' E 023°38'0 0.0
2017-Jun-17 04:01N 37°57' E 023°38'0 0.0
2017-Jun-17 03:30N 37°57' E 023°38'0 0.0
2017-Jun-17 03:00N 37°57' E 023°38'0 0.0
2017-Jun-17 02:30N 37°57' E 023°38'0 0.0
2017-Jun-17 02:00N 37°57' E 023°38'0 0.0
2017-Jun-17 01:31N 37°57' E 023°38'0 0.0
2017-Jun-17 01:01N 37°57' E 023°38'0 0.0
2017-Jun-17 00:31N 37°57' E 023°38'0 0.0
2017-Jun-17 00:00N 37°57' E 023°38'0 0.0
2017-Jun-16 23:30N 37°57' E 023°38'0 0.0
2017-Jun-16 23:00N 37°57' E 023°38'0 0.0
2017-Jun-16 22:31N 37°57' E 023°38'0 0.0
2017-Jun-16 22:01N 37°57' E 023°38'0 0.0
2017-Jun-16 21:31N 37°57' E 023°38'1 1.8
2017-Jun-16 21:00N 37°56' E 023°37'816.7
2017-Jun-16 20:30N 37°48' E 023°41'5322.9
2017-Jun-16 18:12N 37°31' E 024°44'525.4
2017-Jun-16 18:00N 37°31' E 024°50'810.9
2017-Jun-16 17:19N 37°26' E 024°57'723.8
2017-Jun-16 17:01N 37°27' E 025°06'1020.9
2017-Jun-16 16:30N 37°28' E 025°19'510.3
2017-Jun-16 16:00N 37°31' E 025°24'1225.0
2017-Jun-16 15:30N 37°34' E 025°40'  

Dump ship's entire track history